sensor_id;sensor_type;location;lat;lon;timestamp;temperature;humidity
70068;DHT22;57425;51.616;6.680;2022-11-25T00:01:18;8.50;81.70
70068;DHT22;57425;51.616;6.680;2022-11-25T00:03:46;8.50;81.70
70068;DHT22;57425;51.616;6.680;2022-11-25T00:08:41;8.50;81.70
70068;DHT22;57425;51.616;6.680;2022-11-25T00:11:08;8.50;81.70
70068;DHT22;57425;51.616;6.680;2022-11-25T00:13:33;8.50;81.70
70068;DHT22;57425;51.616;6.680;2022-11-25T00:16:04;8.50;81.70
70068;DHT22;57425;51.616;6.680;2022-11-25T00:18:30;8.50;81.70
70068;DHT22;57425;51.616;6.680;2022-11-25T00:20:56;8.50;81.70
70068;DHT22;57425;51.616;6.680;2022-11-25T00:23:22;8.50;81.60
70068;DHT22;57425;51.616;6.680;2022-11-25T00:25:48;8.50;81.70
70068;DHT22;57425;51.616;6.680;2022-11-25T00:28:13;8.50;81.60
70068;DHT22;57425;51.616;6.680;2022-11-25T00:30:39;8.50;81.70
70068;DHT22;57425;51.616;6.680;2022-11-25T00:33:04;8.50;81.70
70068;DHT22;57425;51.616;6.680;2022-11-25T00:35:30;8.50;81.60
70068;DHT22;57425;51.616;6.680;2022-11-25T00:37:55;8.50;81.60
70068;DHT22;57425;51.616;6.680;2022-11-25T00:40:21;8.50;81.60
70068;DHT22;57425;51.616;6.680;2022-11-25T00:42:47;8.50;81.60
70068;DHT22;57425;51.616;6.680;2022-11-25T00:45:30;8.50;81.70
70068;DHT22;57425;51.616;6.680;2022-11-25T00:47:56;8.50;81.60
70068;DHT22;57425;51.616;6.680;2022-11-25T00:50:22;8.70;81.80
70068;DHT22;57425;51.616;6.680;2022-11-25T00:52:47;8.50;81.70
70068;DHT22;57425;51.616;6.680;2022-11-25T00:55:13;8.50;81.70
70068;DHT22;57425;51.616;6.680;2022-11-25T00:57:38;8.50;81.70
70068;DHT22;57425;51.616;6.680;2022-11-25T01:00:06;8.50;81.70
70068;DHT22;57425;51.616;6.680;2022-11-25T01:02:32;8.50;81.70
70068;DHT22;57425;51.616;6.680;2022-11-25T01:04:57;8.50;81.70
70068;DHT22;57425;51.616;6.680;2022-11-25T01:07:23;8.50;81.70
70068;DHT22;57425;51.616;6.680;2022-11-25T01:09:49;8.50;81.70
70068;DHT22;57425;51.616;6.680;2022-11-25T01:12:15;8.50;81.80
70068;DHT22;57425;51.616;6.680;2022-11-25T01:14:41;8.50;81.70
70068;DHT22;57425;51.616;6.680;2022-11-25T01:17:06;8.60;81.80
70068;DHT22;57425;51.616;6.680;2022-11-25T01:19:32;8.50;81.70
70068;DHT22;57425;51.616;6.680;2022-11-25T01:21:59;8.70;81.80
70068;DHT22;57425;51.616;6.680;2022-11-25T01:24:25;8.50;81.70
70068;DHT22;57425;51.616;6.680;2022-11-25T01:26:50;8.50;81.80
70068;DHT22;57425;51.616;6.680;2022-11-25T01:29:18;8.50;81.80
70068;DHT22;57425;51.616;6.680;2022-11-25T01:31:44;8.50;81.80
70068;DHT22;57425;51.616;6.680;2022-11-25T01:34:19;8.50;81.80
70068;DHT22;57425;51.616;6.680;2022-11-25T01:36:45;8.50;82.30
70068;DHT22;57425;51.616;6.680;2022-11-25T01:39:19;8.50;81.80
70068;DHT22;57425;51.616;6.680;2022-11-25T01:41:47;8.60;81.80
70068;DHT22;57425;51.616;6.680;2022-11-25T01:44:18;8.60;81.90
70068;DHT22;57425;51.616;6.680;2022-11-25T01:52:06;8.50;81.80
70068;DHT22;57425;51.616;6.680;2022-11-25T01:54:39;8.60;81.90
70068;DHT22;57425;51.616;6.680;2022-11-25T01:57:17;8.50;81.80
70068;DHT22;57425;51.616;6.680;2022-11-25T01:59:48;8.70;81.90
70068;DHT22;57425;51.616;6.680;2022-11-25T02:02:15;8.70;82.00
70068;DHT22;57425;51.616;6.680;2022-11-25T02:04:43;8.60;81.90
70068;DHT22;57425;51.616;6.680;2022-11-25T02:07:35;8.50;81.90
70068;DHT22;57425;51.616;6.680;2022-11-25T02:10:00;8.60;81.90
70068;DHT22;57425;51.616;6.680;2022-11-25T02:12:27;8.70;82.00
70068;DHT22;57425;51.616;6.680;2022-11-25T02:14:54;8.60;81.90
70068;DHT22;57425;51.616;6.680;2022-11-25T02:17:21;8.60;82.50
70068;DHT22;57425;51.616;6.680;2022-11-25T02:20:00;8.60;82.00
70068;DHT22;57425;51.616;6.680;2022-11-25T02:25:21;8.60;81.90
70068;DHT22;57425;51.616;6.680;2022-11-25T02:27:52;8.60;82.00
70068;DHT22;57425;51.616;6.680;2022-11-25T02:30:18;8.60;82.00
70068;DHT22;57425;51.616;6.680;2022-11-25T02:32:47;8.60;82.00
70068;DHT22;57425;51.616;6.680;2022-11-25T02:35:26;8.60;82.00
70068;DHT22;57425;51.616;6.680;2022-11-25T02:37:53;8.60;82.10
70068;DHT22;57425;51.616;6.680;2022-11-25T02:40:20;8.60;82.10
70068;DHT22;57425;51.616;6.680;2022-11-25T02:42:48;8.60;82.10
70068;DHT22;57425;51.616;6.680;2022-11-25T02:45:16;8.70;82.20
70068;DHT22;57425;51.616;6.680;2022-11-25T02:47:45;8.70;82.30
70068;DHT22;57425;51.616;6.680;2022-11-25T02:50:11;8.70;82.40
70068;DHT22;57425;51.616;6.680;2022-11-25T02:52:38;8.70;82.40
70068;DHT22;57425;51.616;6.680;2022-11-25T02:55:04;8.70;82.40
70068;DHT22;57425;51.616;6.680;2022-11-25T02:57:29;8.70;82.50
70068;DHT22;57425;51.616;6.680;2022-11-25T02:59:55;8.60;82.40
70068;DHT22;57425;51.616;6.680;2022-11-25T03:02:20;8.80;82.60
70068;DHT22;57425;51.616;6.680;2022-11-25T03:04:46;8.70;82.60
70068;DHT22;57425;51.616;6.680;2022-11-25T03:07:12;8.70;82.60
70068;DHT22;57425;51.616;6.680;2022-11-25T03:09:37;8.70;82.70
70068;DHT22;57425;51.616;6.680;2022-11-25T03:12:03;8.70;82.70
70068;DHT22;57425;51.616;6.680;2022-11-25T03:14:44;8.70;82.80
70068;DHT22;57425;51.616;6.680;2022-11-25T03:17:09;8.70;82.80
70068;DHT22;57425;51.616;6.680;2022-11-25T03:19:35;8.70;82.80
70068;DHT22;57425;51.616;6.680;2022-11-25T03:22:01;8.70;82.80
70068;DHT22;57425;51.616;6.680;2022-11-25T03:24:27;8.70;82.80
70068;DHT22;57425;51.616;6.680;2022-11-25T03:26:52;8.70;82.90
70068;DHT22;57425;51.616;6.680;2022-11-25T03:29:18;8.70;82.90
70068;DHT22;57425;51.616;6.680;2022-11-25T03:31:43;8.70;82.90
70068;DHT22;57425;51.616;6.680;2022-11-25T03:34:09;8.70;83.00
70068;DHT22;57425;51.616;6.680;2022-11-25T03:36:34;8.80;83.10
70068;DHT22;57425;51.616;6.680;2022-11-25T03:39:00;8.80;83.10
70068;DHT22;57425;51.616;6.680;2022-11-25T03:41:26;8.80;83.10
70068;DHT22;57425;51.616;6.680;2022-11-25T03:43:51;8.80;83.10
70068;DHT22;57425;51.616;6.680;2022-11-25T03:46:17;8.80;83.10
70068;DHT22;57425;51.616;6.680;2022-11-25T03:48:44;8.80;83.10
70068;DHT22;57425;51.616;6.680;2022-11-25T03:51:09;8.80;83.20
70068;DHT22;57425;51.616;6.680;2022-11-25T03:53:35;8.80;83.20
70068;DHT22;57425;51.616;6.680;2022-11-25T03:56:01;8.80;83.20
70068;DHT22;57425;51.616;6.680;2022-11-25T03:58:27;8.80;83.20
70068;DHT22;57425;51.616;6.680;2022-11-25T04:00:52;8.80;83.20
70068;DHT22;57425;51.616;6.680;2022-11-25T04:03:18;8.80;83.30
70068;DHT22;57425;51.616;6.680;2022-11-25T04:05:43;8.80;83.30
70068;DHT22;57425;51.616;6.680;2022-11-25T04:08:09;8.80;83.30
70068;DHT22;57425;51.616;6.680;2022-11-25T04:10:35;8.80;83.30
70068;DHT22;57425;51.616;6.680;2022-11-25T04:13:00;8.80;83.40
70068;DHT22;57425;51.616;6.680;2022-11-25T04:15:26;8.90;83.40
70068;DHT22;57425;51.616;6.680;2022-11-25T04:17:52;8.80;83.40
70068;DHT22;57425;51.616;6.680;2022-11-25T04:20:18;8.80;83.40
70068;DHT22;57425;51.616;6.680;2022-11-25T04:22:43;8.90;83.60
70068;DHT22;57425;51.616;6.680;2022-11-25T04:25:10;8.80;83.60
70068;DHT22;57425;51.616;6.680;2022-11-25T04:27:35;8.90;83.60
70068;DHT22;57425;51.616;6.680;2022-11-25T04:30:01;8.90;83.70
70068;DHT22;57425;51.616;6.680;2022-11-25T04:32:28;9.00;83.70
70068;DHT22;57425;51.616;6.680;2022-11-25T04:34:53;8.90;83.70
70068;DHT22;57425;51.616;6.680;2022-11-25T04:37:19;8.90;83.70
70068;DHT22;57425;51.616;6.680;2022-11-25T04:39:44;8.90;83.80
70068;DHT22;57425;51.616;6.680;2022-11-25T04:42:11;8.80;83.80
70068;DHT22;57425;51.616;6.680;2022-11-25T04:44:55;8.90;83.80
70068;DHT22;57425;51.616;6.680;2022-11-25T04:47:21;8.90;83.80
70068;DHT22;57425;51.616;6.680;2022-11-25T04:49:47;8.80;83.70
70068;DHT22;57425;51.616;6.680;2022-11-25T04:52:13;9.00;83.80
70068;DHT22;57425;51.616;6.680;2022-11-25T04:54:38;8.90;83.70
70068;DHT22;57425;51.616;6.680;2022-11-25T04:57:04;8.90;83.70
70068;DHT22;57425;51.616;6.680;2022-11-25T04:59:30;8.90;83.70
70068;DHT22;57425;51.616;6.680;2022-11-25T05:02:13;9.00;83.70
70068;DHT22;57425;51.616;6.680;2022-11-25T05:04:40;8.90;83.70
70068;DHT22;57425;51.616;6.680;2022-11-25T05:07:06;8.90;83.70
70068;DHT22;57425;51.616;6.680;2022-11-25T05:09:32;8.90;83.70
70068;DHT22;57425;51.616;6.680;2022-11-25T05:11:58;8.90;83.70
70068;DHT22;57425;51.616;6.680;2022-11-25T05:14:23;9.00;83.70
70068;DHT22;57425;51.616;6.680;2022-11-25T05:16:50;8.90;83.60
70068;DHT22;57425;51.616;6.680;2022-11-25T05:19:16;9.00;83.60
70068;DHT22;57425;51.616;6.680;2022-11-25T05:21:42;8.90;83.60
70068;DHT22;57425;51.616;6.680;2022-11-25T05:24:07;8.90;83.50
70068;DHT22;57425;51.616;6.680;2022-11-25T05:26:33;8.90;83.40
70068;DHT22;57425;51.616;6.680;2022-11-25T05:28:59;9.00;83.50
70068;DHT22;57425;51.616;6.680;2022-11-25T05:31:24;8.90;83.40
70068;DHT22;57425;51.616;6.680;2022-11-25T05:33:50;9.00;83.60
70068;DHT22;57425;51.616;6.680;2022-11-25T05:36:16;8.90;83.50
70068;DHT22;57425;51.616;6.680;2022-11-25T05:38:41;9.00;83.60
70068;DHT22;57425;51.616;6.680;2022-11-25T05:41:07;9.00;83.70
70068;DHT22;57425;51.616;6.680;2022-11-25T05:43:35;8.90;83.70
70068;DHT22;57425;51.616;6.680;2022-11-25T05:46:10;9.00;83.80
70068;DHT22;57425;51.616;6.680;2022-11-25T05:48:36;9.00;83.90
70068;DHT22;57425;51.616;6.680;2022-11-25T05:51:03;9.00;83.90
70068;DHT22;57425;51.616;6.680;2022-11-25T05:53:29;8.90;83.90
70068;DHT22;57425;51.616;6.680;2022-11-25T05:55:58;9.00;83.90
70068;DHT22;57425;51.616;6.680;2022-11-25T05:58:24;9.00;83.90
70068;DHT22;57425;51.616;6.680;2022-11-25T06:00:50;9.00;83.80
70068;DHT22;57425;51.616;6.680;2022-11-25T06:03:16;9.00;83.90
70068;DHT22;57425;51.616;6.680;2022-11-25T06:05:42;9.00;83.90
70068;DHT22;57425;51.616;6.680;2022-11-25T06:08:09;9.00;84.00
70068;DHT22;57425;51.616;6.680;2022-11-25T06:10:38;9.00;84.00
70068;DHT22;57425;51.616;6.680;2022-11-25T06:13:05;9.00;84.00
70068;DHT22;57425;51.616;6.680;2022-11-25T06:15:31;9.00;84.00
70068;DHT22;57425;51.616;6.680;2022-11-25T06:17:56;9.10;84.10
70068;DHT22;57425;51.616;6.680;2022-11-25T06:20:22;9.00;84.10
70068;DHT22;57425;51.616;6.680;2022-11-25T06:22:47;9.00;84.00
70068;DHT22;57425;51.616;6.680;2022-11-25T06:25:13;9.00;84.00
70068;DHT22;57425;51.616;6.680;2022-11-25T06:27:39;9.00;84.00
70068;DHT22;57425;51.616;6.680;2022-11-25T06:30:05;9.00;84.10
70068;DHT22;57425;51.616;6.680;2022-11-25T06:32:31;9.10;84.10
70068;DHT22;57425;51.616;6.680;2022-11-25T06:34:57;9.00;84.00
70068;DHT22;57425;51.616;6.680;2022-11-25T06:37:23;9.00;84.10
70068;DHT22;57425;51.616;6.680;2022-11-25T06:39:48;9.10;84.00
70068;DHT22;57425;51.616;6.680;2022-11-25T06:42:14;9.00;83.90
70068;DHT22;57425;51.616;6.680;2022-11-25T06:44:40;9.10;84.00
70068;DHT22;57425;51.616;6.680;2022-11-25T06:47:05;9.10;84.00
70068;DHT22;57425;51.616;6.680;2022-11-25T06:49:31;9.10;84.10
70068;DHT22;57425;51.616;6.680;2022-11-25T06:51:56;9.10;84.10
70068;DHT22;57425;51.616;6.680;2022-11-25T06:54:22;9.10;84.20
70068;DHT22;57425;51.616;6.680;2022-11-25T06:56:48;9.10;84.20
70068;DHT22;57425;51.616;6.680;2022-11-25T06:59:16;9.10;84.20
70068;DHT22;57425;51.616;6.680;2022-11-25T07:01:42;9.10;84.20
70068;DHT22;57425;51.616;6.680;2022-11-25T07:04:08;9.10;84.20
70068;DHT22;57425;51.616;6.680;2022-11-25T07:06:34;9.20;84.30
70068;DHT22;57425;51.616;6.680;2022-11-25T07:09:00;9.10;84.20
70068;DHT22;57425;51.616;6.680;2022-11-25T07:11:37;9.10;84.20
70068;DHT22;57425;51.616;6.680;2022-11-25T07:14:05;9.10;84.20
70068;DHT22;57425;51.616;6.680;2022-11-25T07:16:32;9.10;84.10
70068;DHT22;57425;51.616;6.680;2022-11-25T07:18:59;9.10;84.00
70068;DHT22;57425;51.616;6.680;2022-11-25T07:21:29;9.10;84.00
70068;DHT22;57425;51.616;6.680;2022-11-25T07:23:56;9.10;84.00
70068;DHT22;57425;51.616;6.680;2022-11-25T07:26:25;9.10;84.00
70068;DHT22;57425;51.616;6.680;2022-11-25T07:28:53;9.10;84.00
70068;DHT22;57425;51.616;6.680;2022-11-25T07:31:20;9.10;84.00
70068;DHT22;57425;51.616;6.680;2022-11-25T07:33:49;9.10;84.10
70068;DHT22;57425;51.616;6.680;2022-11-25T07:36:15;9.10;84.00
70068;DHT22;57425;51.616;6.680;2022-11-25T07:38:41;9.10;84.10
70068;DHT22;57425;51.616;6.680;2022-11-25T07:41:09;9.10;84.00
70068;DHT22;57425;51.616;6.680;2022-11-25T07:43:36;9.10;84.00
70068;DHT22;57425;51.616;6.680;2022-11-25T07:48:40;9.10;84.10
70068;DHT22;57425;51.616;6.680;2022-11-25T07:51:16;9.10;84.10
70068;DHT22;57425;51.616;6.680;2022-11-25T07:53:42;9.10;84.10
70068;DHT22;57425;51.616;6.680;2022-11-25T07:56:08;9.10;84.10
70068;DHT22;57425;51.616;6.680;2022-11-25T07:58:34;9.10;84.20
70068;DHT22;57425;51.616;6.680;2022-11-25T08:01:04;9.10;84.20
70068;DHT22;57425;51.616;6.680;2022-11-25T08:03:32;9.10;84.20
70068;DHT22;57425;51.616;6.680;2022-11-25T08:06:02;9.10;84.20
70068;DHT22;57425;51.616;6.680;2022-11-25T08:08:28;9.10;84.20
70068;DHT22;57425;51.616;6.680;2022-11-25T08:10:54;9.10;84.20
70068;DHT22;57425;51.616;6.680;2022-11-25T08:13:19;9.10;84.20
70068;DHT22;57425;51.616;6.680;2022-11-25T08:15:45;9.10;84.10
70068;DHT22;57425;51.616;6.680;2022-11-25T08:18:13;9.20;84.20
70068;DHT22;57425;51.616;6.680;2022-11-25T08:20:39;9.10;84.10
70068;DHT22;57425;51.616;6.680;2022-11-25T08:23:05;9.10;84.20
70068;DHT22;57425;51.616;6.680;2022-11-25T08:25:31;9.10;84.20
70068;DHT22;57425;51.616;6.680;2022-11-25T08:27:59;9.10;84.20
70068;DHT22;57425;51.616;6.680;2022-11-25T08:30:26;9.10;84.20
70068;DHT22;57425;51.616;6.680;2022-11-25T08:32:52;9.10;84.20
70068;DHT22;57425;51.616;6.680;2022-11-25T08:35:18;9.10;84.20
70068;DHT22;57425;51.616;6.680;2022-11-25T08:37:44;9.20;84.30
70068;DHT22;57425;51.616;6.680;2022-11-25T08:40:11;9.10;84.20
70068;DHT22;57425;51.616;6.680;2022-11-25T08:42:37;9.10;84.30
70068;DHT22;57425;51.616;6.680;2022-11-25T08:45:03;9.10;84.80
70068;DHT22;57425;51.616;6.680;2022-11-25T08:47:30;9.10;84.30
70068;DHT22;57425;51.616;6.680;2022-11-25T08:49:56;9.10;84.30
70068;DHT22;57425;51.616;6.680;2022-11-25T08:52:22;9.10;84.40
70068;DHT22;57425;51.616;6.680;2022-11-25T08:54:48;9.10;84.40
70068;DHT22;57425;51.616;6.680;2022-11-25T08:57:14;9.10;84.40
70068;DHT22;57425;51.616;6.680;2022-11-25T08:59:41;9.10;84.50
70068;DHT22;57425;51.616;6.680;2022-11-25T09:02:08;9.10;84.50
70068;DHT22;57425;51.616;6.680;2022-11-25T09:04:34;9.10;84.50
70068;DHT22;57425;51.616;6.680;2022-11-25T09:07:00;9.10;84.50
70068;DHT22;57425;51.616;6.680;2022-11-25T09:09:26;9.10;84.50
70068;DHT22;57425;51.616;6.680;2022-11-25T09:11:52;9.10;84.50
70068;DHT22;57425;51.616;6.680;2022-11-25T09:14:17;9.10;84.50
70068;DHT22;57425;51.616;6.680;2022-11-25T09:16:43;9.10;84.50
70068;DHT22;57425;51.616;6.680;2022-11-25T09:19:08;9.10;84.50
70068;DHT22;57425;51.616;6.680;2022-11-25T09:21:34;9.10;84.50
70068;DHT22;57425;51.616;6.680;2022-11-25T09:24:00;9.10;84.50
70068;DHT22;57425;51.616;6.680;2022-11-25T09:26:27;9.10;84.50
70068;DHT22;57425;51.616;6.680;2022-11-25T09:28:54;9.10;84.60
70068;DHT22;57425;51.616;6.680;2022-11-25T09:31:20;9.10;84.60
70068;DHT22;57425;51.616;6.680;2022-11-25T09:33:47;9.10;84.50
70068;DHT22;57425;51.616;6.680;2022-11-25T09:36:15;9.10;84.60
70068;DHT22;57425;51.616;6.680;2022-11-25T09:38:41;9.10;84.60
70068;DHT22;57425;51.616;6.680;2022-11-25T09:55:30;9.20;84.60
70068;DHT22;57425;51.616;6.680;2022-11-25T09:58:29;9.10;84.50
70068;DHT22;57425;51.616;6.680;2022-11-25T10:00:56;9.20;84.70
70068;DHT22;57425;51.616;6.680;2022-11-25T10:06:28;9.20;84.70
70068;DHT22;57425;51.616;6.680;2022-11-25T10:09:01;9.20;84.70
70068;DHT22;57425;51.616;6.680;2022-11-25T10:14:57;9.20;84.70
70068;DHT22;57425;51.616;6.680;2022-11-25T10:17:27;9.20;85.20
70068;DHT22;57425;51.616;6.680;2022-11-25T10:22:58;9.20;84.70
70068;DHT22;57425;51.616;6.680;2022-11-25T10:25:29;9.20;84.70
70068;DHT22;57425;51.616;6.680;2022-11-25T10:28:27;9.20;84.70
70068;DHT22;57425;51.616;6.680;2022-11-25T10:33:48;9.20;84.70
70068;DHT22;57425;51.616;6.680;2022-11-25T10:36:30;9.20;84.70
70068;DHT22;57425;51.616;6.680;2022-11-25T10:41:57;9.30;84.80
70068;DHT22;57425;51.616;6.680;2022-11-25T10:52:21;9.30;84.90
70068;DHT22;57425;51.616;6.680;2022-11-25T10:55:09;9.30;84.80
70068;DHT22;57425;51.616;6.680;2022-11-25T10:57:35;9.30;84.90
70068;DHT22;57425;51.616;6.680;2022-11-25T11:00:03;9.30;84.90
70068;DHT22;57425;51.616;6.680;2022-11-25T11:02:37;9.30;84.90
70068;DHT22;57425;51.616;6.680;2022-11-25T11:07:34;9.30;84.90
70068;DHT22;57425;51.616;6.680;2022-11-25T11:10:22;9.40;84.90
70068;DHT22;57425;51.616;6.680;2022-11-25T11:13:04;9.40;84.90
70068;DHT22;57425;51.616;6.680;2022-11-25T11:15:44;9.40;84.90
70068;DHT22;57425;51.616;6.680;2022-11-25T11:18:27;9.40;84.80
70068;DHT22;57425;51.616;6.680;2022-11-25T11:20:55;9.40;84.80
70068;DHT22;57425;51.616;6.680;2022-11-25T11:23:22;9.40;84.90
70068;DHT22;57425;51.616;6.680;2022-11-25T11:31:03;9.40;85.00
70068;DHT22;57425;51.616;6.680;2022-11-25T11:41:51;9.40;84.90
70068;DHT22;57425;51.616;6.680;2022-11-25T11:44:28;9.40;84.80
70068;DHT22;57425;51.616;6.680;2022-11-25T11:47:19;9.40;84.80
70068;DHT22;57425;51.616;6.680;2022-11-25T11:52:57;9.40;84.90
70068;DHT22;57425;51.616;6.680;2022-11-25T12:03:57;9.40;84.90
70068;DHT22;57425;51.616;6.680;2022-11-25T12:06:27;9.50;85.10
70068;DHT22;57425;51.616;6.680;2022-11-25T12:09:02;9.50;85.10
70068;DHT22;57425;51.616;6.680;2022-11-25T12:11:42;9.50;85.10
70068;DHT22;57425;51.616;6.680;2022-11-25T12:14:17;9.50;85.20
70068;DHT22;57425;51.616;6.680;2022-11-25T12:16:51;9.60;85.20
70068;DHT22;57425;51.616;6.680;2022-11-25T12:19:25;9.50;85.20
70068;DHT22;57425;51.616;6.680;2022-11-25T12:21:57;9.50;85.20
70068;DHT22;57425;51.616;6.680;2022-11-25T12:29:57;9.50;85.20
70068;DHT22;57425;51.616;6.680;2022-11-25T12:33:05;9.50;85.20
70068;DHT22;57425;51.616;6.680;2022-11-25T12:41:29;9.60;85.10
70068;DHT22;57425;51.616;6.680;2022-11-25T12:44:27;9.60;85.20
70068;DHT22;57425;51.616;6.680;2022-11-25T12:46:55;9.60;85.20
70068;DHT22;57425;51.616;6.680;2022-11-25T12:49:27;9.60;85.10
70068;DHT22;57425;51.616;6.680;2022-11-25T12:54:35;9.60;85.20
70068;DHT22;57425;51.616;6.680;2022-11-25T13:06:13;9.70;85.40
70068;DHT22;57425;51.616;6.680;2022-11-25T13:08:34;9.70;85.30
70068;DHT22;57425;51.616;6.680;2022-11-25T13:14:26;9.70;85.30
70068;DHT22;57425;51.616;6.680;2022-11-25T13:16:53;9.70;85.30
70068;DHT22;57425;51.616;6.680;2022-11-25T13:19:21;9.70;85.20
70068;DHT22;57425;51.616;6.680;2022-11-25T13:22:05;9.80;85.30
70068;DHT22;57425;51.616;6.680;2022-11-25T13:24:33;9.70;85.30
70068;DHT22;57425;51.616;6.680;2022-11-25T13:27:02;9.90;85.30
70068;DHT22;57425;51.616;6.680;2022-11-25T13:32:03;9.70;85.20
70068;DHT22;57425;51.616;6.680;2022-11-25T13:34:48;9.80;85.30
70068;DHT22;57425;51.616;6.680;2022-11-25T13:37:47;9.70;85.20
70068;DHT22;57425;51.616;6.680;2022-11-25T13:42:48;9.80;85.20
70068;DHT22;57425;51.616;6.680;2022-11-25T13:47:51;9.80;85.10
70068;DHT22;57425;51.616;6.680;2022-11-25T13:50:20;9.80;85.10
70068;DHT22;57425;51.616;6.680;2022-11-25T13:53:01;9.80;85.10
70068;DHT22;57425;51.616;6.680;2022-11-25T14:19:20;9.90;84.90
70068;DHT22;57425;51.616;6.680;2022-11-25T14:26:51;9.90;84.90
70068;DHT22;57425;51.616;6.680;2022-11-25T14:32:09;9.90;84.90
70068;DHT22;57425;51.616;6.680;2022-11-25T14:34:55;9.90;84.80
70068;DHT22;57425;51.616;6.680;2022-11-25T14:40:40;9.90;84.80
70068;DHT22;57425;51.616;6.680;2022-11-25T14:43:13;9.90;84.80
70068;DHT22;57425;51.616;6.680;2022-11-25T14:45:39;10.00;84.80
70068;DHT22;57425;51.616;6.680;2022-11-25T14:48:16;9.90;84.70
70068;DHT22;57425;51.616;6.680;2022-11-25T14:50:59;9.90;84.80
70068;DHT22;57425;51.616;6.680;2022-11-25T14:53:26;10.00;84.80
70068;DHT22;57425;51.616;6.680;2022-11-25T14:55:52;10.00;84.70
70068;DHT22;57425;51.616;6.680;2022-11-25T14:58:19;10.10;84.80
70068;DHT22;57425;51.616;6.680;2022-11-25T15:01:03;10.00;84.80
70068;DHT22;57425;51.616;6.680;2022-11-25T15:03:29;10.00;84.80
70068;DHT22;57425;51.616;6.680;2022-11-25T15:06:04;10.00;84.70
70068;DHT22;57425;51.616;6.680;2022-11-25T15:08:38;10.00;84.60
70068;DHT22;57425;51.616;6.680;2022-11-25T15:11:16;10.00;84.60
70068;DHT22;57425;51.616;6.680;2022-11-25T15:13:47;10.00;84.60
70068;DHT22;57425;51.616;6.680;2022-11-25T15:16:18;10.00;84.60
70068;DHT22;57425;51.616;6.680;2022-11-25T15:18:58;10.00;84.50
70068;DHT22;57425;51.616;6.680;2022-11-25T15:21:29;10.00;84.50
70068;DHT22;57425;51.616;6.680;2022-11-25T15:23:55;10.00;84.50
70068;DHT22;57425;51.616;6.680;2022-11-25T15:26:26;10.00;85.00
70068;DHT22;57425;51.616;6.680;2022-11-25T15:28:54;10.00;84.50
70068;DHT22;57425;51.616;6.680;2022-11-25T15:31:29;10.00;84.50
70068;DHT22;57425;51.616;6.680;2022-11-25T15:34:01;10.00;84.50
70068;DHT22;57425;51.616;6.680;2022-11-25T15:36:28;10.00;84.50
70068;DHT22;57425;51.616;6.680;2022-11-25T15:38:54;10.00;85.00
70068;DHT22;57425;51.616;6.680;2022-11-25T15:41:33;10.00;84.50
70068;DHT22;57425;51.616;6.680;2022-11-25T15:44:04;10.10;84.60
70068;DHT22;57425;51.616;6.680;2022-11-25T15:46:33;10.00;84.50
70068;DHT22;57425;51.616;6.680;2022-11-25T15:49:03;10.00;84.50
70068;DHT22;57425;51.616;6.680;2022-11-25T15:56:55;10.10;84.60
70068;DHT22;57425;51.616;6.680;2022-11-25T16:10:21;10.10;84.50
70068;DHT22;57425;51.616;6.680;2022-11-25T16:21:06;10.00;84.50
70068;DHT22;57425;51.616;6.680;2022-11-25T16:23:34;10.00;84.50
70068;DHT22;57425;51.616;6.680;2022-11-25T16:26:11;10.00;84.50
70068;DHT22;57425;51.616;6.680;2022-11-25T16:28:40;10.00;84.50
70068;DHT22;57425;51.616;6.680;2022-11-25T16:31:11;10.00;84.50
70068;DHT22;57425;51.616;6.680;2022-11-25T16:33:39;10.00;84.50
70068;DHT22;57425;51.616;6.680;2022-11-25T16:36:06;10.00;84.50
70068;DHT22;57425;51.616;6.680;2022-11-25T16:38:31;10.00;84.40
70068;DHT22;57425;51.616;6.680;2022-11-25T16:40:57;10.00;84.40
70068;DHT22;57425;51.616;6.680;2022-11-25T16:43:25;10.10;84.40
70068;DHT22;57425;51.616;6.680;2022-11-25T16:45:52;10.00;84.30
70068;DHT22;57425;51.616;6.680;2022-11-25T16:48:22;10.10;84.40
70068;DHT22;57425;51.616;6.680;2022-11-25T16:50:49;10.10;84.40
70068;DHT22;57425;51.616;6.680;2022-11-25T16:53:15;10.10;84.40
70068;DHT22;57425;51.616;6.680;2022-11-25T16:55:43;10.00;84.30
70068;DHT22;57425;51.616;6.680;2022-11-25T17:00:42;10.10;84.40
70068;DHT22;57425;51.616;6.680;2022-11-25T17:03:11;10.10;84.40
70068;DHT22;57425;51.616;6.680;2022-11-25T17:05:37;10.00;84.30
70068;DHT22;57425;51.616;6.680;2022-11-25T17:08:03;10.10;84.30
70068;DHT22;57425;51.616;6.680;2022-11-25T17:10:30;10.10;84.30
70068;DHT22;57425;51.616;6.680;2022-11-25T17:12:55;10.10;84.30
70068;DHT22;57425;51.616;6.680;2022-11-25T17:15:31;10.10;84.30
70068;DHT22;57425;51.616;6.680;2022-11-25T17:17:57;10.10;84.30
70068;DHT22;57425;51.616;6.680;2022-11-25T17:20:24;10.10;84.20
70068;DHT22;57425;51.616;6.680;2022-11-25T17:22:50;10.20;84.30
70068;DHT22;57425;51.616;6.680;2022-11-25T17:25:17;10.10;84.20
70068;DHT22;57425;51.616;6.680;2022-11-25T17:27:44;10.00;84.20
70068;DHT22;57425;51.616;6.680;2022-11-25T17:30:25;10.10;84.70
70068;DHT22;57425;51.616;6.680;2022-11-25T17:33:02;10.10;84.20
70068;DHT22;57425;51.616;6.680;2022-11-25T17:35:29;10.00;84.70
70068;DHT22;57425;51.616;6.680;2022-11-25T17:37:56;10.10;84.20
70068;DHT22;57425;51.616;6.680;2022-11-25T17:40:22;10.10;84.20
70068;DHT22;57425;51.616;6.680;2022-11-25T17:42:48;10.10;84.20
70068;DHT22;57425;51.616;6.680;2022-11-25T17:45:16;10.10;84.20
70068;DHT22;57425;51.616;6.680;2022-11-25T17:47:43;10.10;84.20
70068;DHT22;57425;51.616;6.680;2022-11-25T17:50:15;10.10;84.20
70068;DHT22;57425;51.616;6.680;2022-11-25T17:52:41;10.10;84.20
70068;DHT22;57425;51.616;6.680;2022-11-25T17:55:08;10.10;84.20
70068;DHT22;57425;51.616;6.680;2022-11-25T17:57:34;10.00;84.10
70068;DHT22;57425;51.616;6.680;2022-11-25T17:59:59;10.10;84.20
70068;DHT22;57425;51.616;6.680;2022-11-25T18:02:25;10.10;84.20
70068;DHT22;57425;51.616;6.680;2022-11-25T18:04:51;10.10;84.20
70068;DHT22;57425;51.616;6.680;2022-11-25T18:07:17;10.10;84.20
70068;DHT22;57425;51.616;6.680;2022-11-25T18:09:43;10.10;84.20
70068;DHT22;57425;51.616;6.680;2022-11-25T18:12:17;10.10;84.20
70068;DHT22;57425;51.616;6.680;2022-11-25T18:14:43;10.10;84.20
70068;DHT22;57425;51.616;6.680;2022-11-25T18:17:13;10.10;84.10
70068;DHT22;57425;51.616;6.680;2022-11-25T18:19:40;10.10;84.10
70068;DHT22;57425;51.616;6.680;2022-11-25T18:22:15;10.10;84.10
70068;DHT22;57425;51.616;6.680;2022-11-25T18:24:42;10.10;84.00
70068;DHT22;57425;51.616;6.680;2022-11-25T18:27:24;10.10;84.00
70068;DHT22;57425;51.616;6.680;2022-11-25T18:29:52;10.10;83.90
70068;DHT22;57425;51.616;6.680;2022-11-25T18:32:19;10.00;83.90
70068;DHT22;57425;51.616;6.680;2022-11-25T18:34:44;10.10;84.00
70068;DHT22;57425;51.616;6.680;2022-11-25T18:37:10;10.00;83.90
70068;DHT22;57425;51.616;6.680;2022-11-25T18:39:38;10.10;83.90
70068;DHT22;57425;51.616;6.680;2022-11-25T18:42:18;10.10;83.90
70068;DHT22;57425;51.616;6.680;2022-11-25T18:44:46;10.10;83.90
70068;DHT22;57425;51.616;6.680;2022-11-25T18:47:12;10.00;83.90